createdAt,value
2022-12-12T00:00:39.721Z,23.63
2022-12-12T00:03:06.332Z,23.33
2022-12-12T00:05:32.885Z,23.70
2022-12-12T00:07:59.444Z,24.52
2022-12-12T00:10:26.062Z,24.17
2022-12-12T00:12:52.691Z,22.95
2022-12-12T00:15:19.226Z,23.15
2022-12-12T00:17:45.718Z,23.55
2022-12-12T00:20:12.247Z,24.08
2022-12-12T00:22:38.771Z,23.33
2022-12-12T00:25:05.631Z,24.45
2022-12-12T00:27:33.450Z,21.52
2022-12-12T00:29:59.962Z,22.65
2022-12-12T00:32:26.691Z,21.65
2022-12-12T00:34:53.348Z,21.77
2022-12-12T00:37:19.766Z,22.92
2022-12-12T00:39:46.397Z,22.77
2022-12-12T00:42:13.026Z,23.55
2022-12-12T00:44:39.897Z,22.85
2022-12-12T00:47:06.552Z,22.80
2022-12-12T00:49:33.253Z,23.08
2022-12-12T00:51:59.711Z,23.88
2022-12-12T00:54:26.118Z,23.08
2022-12-12T00:56:52.622Z,23.02
2022-12-12T00:59:19.785Z,22.90
2022-12-12T01:01:46.897Z,23.02
2022-12-12T01:04:13.610Z,22.75
2022-12-12T01:06:40.295Z,23.48
2022-12-12T01:09:06.755Z,24.50
2022-12-12T01:11:33.236Z,23.67
2022-12-12T01:13:59.729Z,24.13
2022-12-12T01:16:26.260Z,24.10
2022-12-12T01:18:52.887Z,24.20
2022-12-12T01:21:20.569Z,25.17
2022-12-12T01:23:47.892Z,24.95
2022-12-12T01:26:18.068Z,24.30
2022-12-12T01:28:45.607Z,23.65
2022-12-12T01:31:12.600Z,24.90
2022-12-12T01:33:39.883Z,25.88
2022-12-12T01:36:07.354Z,24.73
2022-12-12T01:38:33.860Z,24.48
2022-12-12T01:41:00.298Z,25.02
2022-12-12T01:43:28.530Z,24.25
2022-12-12T01:46:02.538Z,25.50
2022-12-12T01:48:30.642Z,23.77
2022-12-12T01:51:01.331Z,23.58
2022-12-12T01:53:31.439Z,24.38
2022-12-12T01:55:59.616Z,24.40
2022-12-12T01:58:26.329Z,24.50
2022-12-12T02:00:52.848Z,23.88
2022-12-12T02:03:19.444Z,24.40
2022-12-12T02:09:35.956Z,23.88
2022-12-12T02:12:02.468Z,23.08
2022-12-12T02:14:32.197Z,23.38
2022-12-12T02:17:26.510Z,25.55
2022-12-12T02:19:59.005Z,24.95
2022-12-12T02:22:58.550Z,23.55
2022-12-12T02:25:46.566Z,23.65
2022-12-12T02:28:54.356Z,22.50
2022-12-12T02:31:40.627Z,21.77
2022-12-12T02:34:36.163Z,23.83
2022-12-12T02:37:30.307Z,23.65
2022-12-12T02:40:10.993Z,23.00
2022-12-12T02:42:46.708Z,23.60
2022-12-12T02:45:37.703Z,22.50
2022-12-12T02:48:12.593Z,17.58
2022-12-12T02:50:40.657Z,22.45
2022-12-12T02:53:07.193Z,22.38
2022-12-12T02:55:36.408Z,23.98
2022-12-12T02:58:05.025Z,25.35
2022-12-12T03:00:40.783Z,24.50
2022-12-12T03:03:33.035Z,23.35
2022-12-12T03:06:21.317Z,24.15
2022-12-12T03:09:15.814Z,24.17
2022-12-12T03:12:03.402Z,24.02
2022-12-12T03:14:58.493Z,25.48
2022-12-12T03:17:34.209Z,25.05
2022-12-12T03:20:10.549Z,23.48
2022-12-12T03:22:45.891Z,24.45
2022-12-12T03:25:44.942Z,26.45
2022-12-12T03:28:18.222Z,26.15
2022-12-12T03:30:50.578Z,24.73
2022-12-12T03:33:31.099Z,24.85
2022-12-12T03:36:06.976Z,22.60
2022-12-12T03:38:38.002Z,24.58
2022-12-12T03:41:08.752Z,23.52
2022-12-12T03:43:44.859Z,23.88
2022-12-12T03:46:19.554Z,23.38
2022-12-12T03:48:52.079Z,23.08
2022-12-12T03:51:20.713Z,24.50
2022-12-12T03:53:52.819Z,23.85
2022-12-12T03:56:30.460Z,25.58
2022-12-12T03:59:09.213Z,25.38
2022-12-12T04:01:57.448Z,23.90
2022-12-12T04:04:32.700Z,22.63
2022-12-12T04:07:06.958Z,23.05
2022-12-12T04:09:52.415Z,23.77
2022-12-12T04:12:58.545Z,23.17
2022-12-12T04:15:47.473Z,23.33
2022-12-12T04:18:29.292Z,23.45
2022-12-12T04:21:34.483Z,21.83
2022-12-12T04:24:20.273Z,24.98
2022-12-12T04:27:00.265Z,23.80
2022-12-12T04:29:48.705Z,21.17
2022-12-12T04:32:38.075Z,22.20
2022-12-12T04:35:31.649Z,22.38
2022-12-12T04:38:02.194Z,21.38
2022-12-12T04:40:36.144Z,21.03
2022-12-12T04:43:33.126Z,19.80
2022-12-12T04:46:04.765Z,21.38
2022-12-12T04:48:39.009Z,19.95
2022-12-12T04:51:07.193Z,18.60
2022-12-12T04:53:39.401Z,19.35
2022-12-12T04:56:11.442Z,19.13
2022-12-12T04:58:39.543Z,19.13
2022-12-12T05:01:16.467Z,18.23
2022-12-12T05:03:52.862Z,18.67
2022-12-12T05:06:26.369Z,16.95
2022-12-12T05:08:55.263Z,17.33
2022-12-12T05:11:22.670Z,18.77
2022-12-12T05:13:49.724Z,18.35
2022-12-12T05:16:19.191Z,17.55
2022-12-12T05:18:46.010Z,17.75
2022-12-12T05:21:13.490Z,15.90
2022-12-12T05:23:40.078Z,16.48
2022-12-12T05:26:25.261Z,15.68
2022-12-12T05:28:51.726Z,15.18
2022-12-12T05:31:18.556Z,14.07
2022-12-12T05:33:45.449Z,13.32
2022-12-12T05:36:12.555Z,13.75
2022-12-12T05:38:39.534Z,13.10
2022-12-12T05:41:06.332Z,12.80
2022-12-12T05:43:33.380Z,12.48
2022-12-12T05:46:00.465Z,11.95
2022-12-12T05:48:27.767Z,11.10
2022-12-12T05:50:54.292Z,11.75
2022-12-12T05:53:21.013Z,11.45
2022-12-12T05:55:51.973Z,10.30
2022-12-12T05:58:19.984Z,11.00
2022-12-12T06:00:50.925Z,10.52
2022-12-12T06:03:18.161Z,10.38
2022-12-12T06:05:44.604Z,10.25
2022-12-12T06:08:11.170Z,10.35
2022-12-12T06:10:37.744Z,9.82
2022-12-12T06:13:04.254Z,9.43
2022-12-12T06:15:30.879Z,8.93
2022-12-12T06:17:58.509Z,8.75
2022-12-12T06:20:25.195Z,9.20
2022-12-12T06:22:53.836Z,9.23
2022-12-12T06:25:21.233Z,9.15
2022-12-12T06:27:47.675Z,8.90
2022-12-12T06:30:14.525Z,9.75
2022-12-12T06:32:41.363Z,14.45
2022-12-12T06:35:08.394Z,10.27
2022-12-12T06:37:35.216Z,9.70
2022-12-12T06:40:01.872Z,9.45
2022-12-12T06:42:28.383Z,8.88
2022-12-12T06:44:54.851Z,8.35
2022-12-12T06:47:21.295Z,8.93
2022-12-12T06:49:48.236Z,8.68
2022-12-12T06:52:14.743Z,8.52
2022-12-12T06:54:41.386Z,9.75
2022-12-12T06:57:07.836Z,9.32
2022-12-12T06:59:34.281Z,9.77
2022-12-12T07:02:03.973Z,9.25
2022-12-12T07:04:30.508Z,9.23
2022-12-12T07:06:57.008Z,10.05
2022-12-12T07:09:23.488Z,9.85
2022-12-12T07:11:49.904Z,9.60
2022-12-12T07:14:17.357Z,8.57
2022-12-12T07:16:43.853Z,10.05
2022-12-12T07:19:10.279Z,9.82
2022-12-12T07:21:37.027Z,10.35
2022-12-12T07:24:03.612Z,9.23
2022-12-12T07:26:30.088Z,10.10
2022-12-12T07:28:56.680Z,9.80
2022-12-12T07:31:26.589Z,9.32
2022-12-12T07:33:54.536Z,9.90
2022-12-12T07:36:21.067Z,8.80
2022-12-12T07:38:47.931Z,9.40
2022-12-12T07:41:17.813Z,9.48
2022-12-12T07:43:46.060Z,9.00
2022-12-12T07:46:18.312Z,9.32
2022-12-12T07:48:44.973Z,9.38
2022-12-12T07:51:12.380Z,8.75
2022-12-12T07:53:39.385Z,10.07
2022-12-12T07:56:07.472Z,8.95
2022-12-12T07:58:34.729Z,8.98
2022-12-12T08:01:01.490Z,9.70
2022-12-12T08:03:27.986Z,8.95
2022-12-12T08:05:54.592Z,8.50
2022-12-12T08:08:21.540Z,9.55
2022-12-12T08:10:48.247Z,8.80
2022-12-12T08:13:14.862Z,8.85
2022-12-12T08:15:42.773Z,9.18
2022-12-12T08:18:09.229Z,9.35
2022-12-12T08:20:39.455Z,9.10
2022-12-12T08:23:06.109Z,8.65
2022-12-12T08:25:33.416Z,8.98
2022-12-12T08:27:59.945Z,8.80
2022-12-12T08:30:26.427Z,9.77
2022-12-12T08:32:53.112Z,8.68
2022-12-12T08:35:19.673Z,9.10
2022-12-12T08:37:46.230Z,8.55
2022-12-12T08:40:12.854Z,8.85
2022-12-12T08:42:39.658Z,8.35
2022-12-12T08:45:06.661Z,8.25
2022-12-12T08:47:33.334Z,8.32
2022-12-12T08:49:59.849Z,8.93
2022-12-12T08:52:26.282Z,8.63
2022-12-12T08:54:52.829Z,8.25
2022-12-12T08:57:24.248Z,8.30
2022-12-12T08:59:52.344Z,8.23
2022-12-12T09:02:19.073Z,8.45
2022-12-12T09:04:45.676Z,7.88
2022-12-12T09:07:12.339Z,7.22
2022-12-12T09:09:39.105Z,7.45
2022-12-12T09:12:05.801Z,7.40
2022-12-12T09:14:33.135Z,7.95
2022-12-12T09:16:59.576Z,7.82
2022-12-12T09:19:25.993Z,7.75
2022-12-12T09:21:52.588Z,7.05
2022-12-12T09:24:19.637Z,7.32
2022-12-12T09:26:46.125Z,7.07
2022-12-12T09:29:13.043Z,7.45
2022-12-12T09:31:39.588Z,6.50
2022-12-12T09:34:06.241Z,7.50
2022-12-12T09:36:32.818Z,6.68
2022-12-12T09:38:59.307Z,6.20
2022-12-12T09:41:27.261Z,6.82
2022-12-12T09:43:59.505Z,6.55
2022-12-12T09:46:34.808Z,5.78
2022-12-12T09:49:38.420Z,6.10
2022-12-12T09:52:14.164Z,6.43
2022-12-12T09:54:40.639Z,6.10
2022-12-12T09:57:20.916Z,5.85
2022-12-12T09:59:56.137Z,6.13
2022-12-12T10:02:48.415Z,5.82
2022-12-12T10:05:27.048Z,6.40
2022-12-12T10:08:02.352Z,6.22
2022-12-12T10:10:34.650Z,5.25
2022-12-12T10:13:04.162Z,6.05
2022-12-12T10:15:41.755Z,5.50
2022-12-12T10:18:16.264Z,5.25
2022-12-12T10:20:51.268Z,5.78
2022-12-12T10:23:26.815Z,5.35
2022-12-12T10:26:08.628Z,5.00
2022-12-12T10:28:35.609Z,5.50
2022-12-12T10:31:23.767Z,5.20
2022-12-12T10:34:15.050Z,5.07
2022-12-12T10:37:10.118Z,4.85
2022-12-12T10:39:55.408Z,4.82
2022-12-12T10:42:41.375Z,4.90
2022-12-12T10:45:32.657Z,5.18
2022-12-12T10:47:59.509Z,4.45
2022-12-12T10:50:33.763Z,5.03
2022-12-12T10:53:03.260Z,4.90
2022-12-12T10:55:55.444Z,4.90
2022-12-12T10:58:38.855Z,5.22
2022-12-12T11:01:38.516Z,5.30
2022-12-12T11:04:08.939Z,4.70
2022-12-12T11:06:48.618Z,4.85
2022-12-12T11:09:25.718Z,5.63
2022-12-12T11:12:12.323Z,5.25
2022-12-12T11:14:45.060Z,5.55
2022-12-12T11:17:29.479Z,4.90
2022-12-12T11:20:01.495Z,5.03
2022-12-12T11:22:35.657Z,4.90
2022-12-12T11:25:02.606Z,5.20
2022-12-12T11:27:32.953Z,5.30
2022-12-12T11:30:04.117Z,5.53
2022-12-12T11:32:41.350Z,5.75
2022-12-12T11:35:26.663Z,5.65
2022-12-12T11:37:58.107Z,5.72
2022-12-12T11:40:30.971Z,5.63
2022-12-12T11:43:22.455Z,5.70
2022-12-12T11:46:26.338Z,5.47
2022-12-12T11:48:53.063Z,5.60
2022-12-12T11:51:44.625Z,5.30
2022-12-12T11:54:20.318Z,6.50
2022-12-12T11:57:03.306Z,7.18
2022-12-12T11:59:54.980Z,6.15
2022-12-12T12:02:59.309Z,7.90
2022-12-12T12:05:25.961Z,7.40
2022-12-12T12:08:08.179Z,7.68
2022-12-12T12:10:45.764Z,7.60
2022-12-12T12:13:30.494Z,7.95
2022-12-12T12:16:35.712Z,8.25
2022-12-12T12:19:27.343Z,8.77
2022-12-12T12:22:14.939Z,8.35
2022-12-12T12:24:53.808Z,8.98
2022-12-12T12:27:42.864Z,6.97
2022-12-12T12:30:21.497Z,8.23
2022-12-12T12:33:14.592Z,7.25
2022-12-12T12:36:09.302Z,6.13
2022-12-12T12:39:10.723Z,6.15
2022-12-12T12:41:37.098Z,6.30
2022-12-12T12:44:21.385Z,6.80
2022-12-12T12:47:25.863Z,5.78
2022-12-12T12:50:17.677Z,6.40
2022-12-12T12:53:00.202Z,5.75
2022-12-12T12:55:35.621Z,5.88
2022-12-12T12:58:06.179Z,6.18
2022-12-12T13:00:39.102Z,5.83
2022-12-12T13:03:05.707Z,5.82
2022-12-12T13:05:43.975Z,5.72
2022-12-12T13:08:29.497Z,5.35
2022-12-12T13:11:03.345Z,5.60
2022-12-12T13:13:38.784Z,5.47
2022-12-12T13:16:10.829Z,5.47
2022-12-12T13:18:46.787Z,6.95
2022-12-12T13:21:37.759Z,6.18
2022-12-12T13:24:21.957Z,4.78
2022-12-12T13:27:12.376Z,5.82
2022-12-12T13:30:05.182Z,5.95
2022-12-12T13:32:37.761Z,6.20
2022-12-12T13:35:13.063Z,6.57
2022-12-12T13:37:50.214Z,8.50
2022-12-12T13:40:25.495Z,8.50
2022-12-12T13:43:25.558Z,7.80
2022-12-12T13:45:55.697Z,7.68
2022-12-12T13:48:28.479Z,7.80
2022-12-12T13:51:34.864Z,8.45
2022-12-12T13:54:14.947Z,9.10
2022-12-12T13:56:43.100Z,10.25
2022-12-12T13:59:27.297Z,10.13
2022-12-12T14:02:01.200Z,10.90
2022-12-12T14:04:31.973Z,9.27
2022-12-12T14:07:04.733Z,10.05
2022-12-12T14:09:50.640Z,10.38
2022-12-12T14:12:32.702Z,10.85
2022-12-12T14:15:09.273Z,12.30
2022-12-12T14:17:42.713Z,13.15
2022-12-12T14:20:49.152Z,12.10
2022-12-12T14:23:27.044Z,13.75
2022-12-12T14:25:54.173Z,12.55
2022-12-12T14:28:32.924Z,13.45
2022-12-12T14:31:14.217Z,13.45
2022-12-12T14:34:02.220Z,12.98
2022-12-12T14:37:22.454Z,12.48
2022-12-12T14:40:11.146Z,12.50
2022-12-12T14:43:19.877Z,13.27
2022-12-12T14:45:51.589Z,11.88
2022-12-12T14:48:29.201Z,12.50
2022-12-12T14:51:16.097Z,12.95
2022-12-12T14:53:48.140Z,12.75
2022-12-12T14:56:19.528Z,13.52
2022-12-12T14:59:00.070Z,13.60
2022-12-12T15:01:45.537Z,13.23
2022-12-12T15:04:32.570Z,12.32
2022-12-12T15:07:06.574Z,12.40
2022-12-12T15:09:38.955Z,12.85
2022-12-12T15:12:11.709Z,12.98
2022-12-12T15:14:56.237Z,13.27
2022-12-12T15:17:32.935Z,11.82
2022-12-12T15:20:04.224Z,11.85
2022-12-12T15:22:59.091Z,12.00
2022-12-12T15:25:29.400Z,11.55
2022-12-12T15:27:59.653Z,12.23
2022-12-12T15:30:37.537Z,12.35
2022-12-12T15:33:08.205Z,13.05
2022-12-12T15:35:40.855Z,11.93
2022-12-12T15:38:24.306Z,12.02
2022-12-12T15:40:59.838Z,12.48
2022-12-12T15:43:29.165Z,12.07
2022-12-12T15:46:03.464Z,11.32
2022-12-12T15:48:30.046Z,12.13
2022-12-12T15:51:03.264Z,11.32
2022-12-12T15:53:38.692Z,11.68
2022-12-12T15:56:08.103Z,11.50
2022-12-12T15:58:44.542Z,10.70
2022-12-12T16:01:21.356Z,11.85
2022-12-12T16:03:59.128Z,10.60
2022-12-12T16:06:40.991Z,11.90
2022-12-12T16:09:07.953Z,10.80
2022-12-12T16:11:41.714Z,11.20
2022-12-12T16:14:32.502Z,10.35
2022-12-12T16:17:22.332Z,11.80
2022-12-12T16:20:02.450Z,12.20
2022-12-12T16:22:35.206Z,10.98
2022-12-12T16:25:27.693Z,10.95
2022-12-12T16:27:54.530Z,11.60
2022-12-12T16:30:21.528Z,12.10
2022-12-12T16:32:48.334Z,11.85
2022-12-12T16:35:22.774Z,11.98
2022-12-12T16:37:53.822Z,11.25
2022-12-12T16:40:21.451Z,11.48
2022-12-12T16:43:15.903Z,12.15
2022-12-12T16:45:46.586Z,11.93
2022-12-12T16:48:21.299Z,11.48
2022-12-12T16:50:54.408Z,12.45
2022-12-12T16:53:21.127Z,11.63
2022-12-12T16:56:02.465Z,10.93
2022-12-12T16:58:29.356Z,12.52
2022-12-12T17:00:56.095Z,10.85
2022-12-12T17:03:26.187Z,12.15
2022-12-12T17:05:53.348Z,11.82
2022-12-12T17:08:20.238Z,11.93
2022-12-12T17:10:49.007Z,11.43
2022-12-12T17:13:18.576Z,11.95
2022-12-12T17:15:48.826Z,10.82
2022-12-12T17:18:15.814Z,10.30
2022-12-12T17:20:43.019Z,10.68
2022-12-12T17:23:32.688Z,10.77
2022-12-12T17:26:04.628Z,10.20
2022-12-12T17:28:36.290Z,10.88
2022-12-12T17:33:33.445Z,10.05
2022-12-12T17:36:11.564Z,9.18
2022-12-12T17:38:38.285Z,10.32
2022-12-12T17:41:09.068Z,10.05
2022-12-12T17:43:37.284Z,9.82
2022-12-12T17:46:06.399Z,10.18
2022-12-12T17:48:35.335Z,9.27
2022-12-12T17:51:05.227Z,10.10
2022-12-12T17:53:38.073Z,9.52
2022-12-12T17:56:18.262Z,8.90
2022-12-12T17:58:46.525Z,9.82
2022-12-12T18:01:28.278Z,10.25
2022-12-12T18:04:04.087Z,12.20
2022-12-12T18:06:35.986Z,10.57
2022-12-12T18:09:09.153Z,11.30
2022-12-12T18:11:38.957Z,9.00
2022-12-12T18:14:07.542Z,9.05
2022-12-12T18:16:36.450Z,7.78
2022-12-12T18:19:03.713Z,8.70
2022-12-12T18:24:22.704Z,8.80
2022-12-12T18:26:53.834Z,8.65
2022-12-12T18:29:20.596Z,10.05
2022-12-12T18:31:47.851Z,9.63
2022-12-12T18:34:17.956Z,9.27
2022-12-12T18:36:44.765Z,10.38
2022-12-12T18:39:11.888Z,9.00
2022-12-12T18:41:40.030Z,9.95
2022-12-12T18:44:14.340Z,9.77
2022-12-12T18:46:43.489Z,10.18
2022-12-12T18:49:13.886Z,9.32
2022-12-12T18:51:42.434Z,10.98
2022-12-12T18:54:14.246Z,10.77
2022-12-12T18:56:42.731Z,9.88
2022-12-12T18:59:09.307Z,10.10
2022-12-12T19:01:36.510Z,9.85
2022-12-12T19:04:10.718Z,10.10
2022-12-12T19:06:40.229Z,10.02
2022-12-12T19:09:17.825Z,11.52
2022-12-12T19:11:45.065Z,10.00
2022-12-12T19:14:13.049Z,10.55
2022-12-12T19:16:39.758Z,11.10
2022-12-12T19:19:07.293Z,9.68
2022-12-12T19:21:34.897Z,10.52
2022-12-12T19:24:02.974Z,9.90
2022-12-12T19:26:30.452Z,10.23
2022-12-12T19:29:05.871Z,12.05
2022-12-12T19:31:34.450Z,11.38
2022-12-12T19:34:01.904Z,10.07
2022-12-12T19:36:28.682Z,11.30
2022-12-12T19:38:57.719Z,11.35
2022-12-12T19:41:24.829Z,11.65
2022-12-12T19:43:52.974Z,11.02
2022-12-12T19:46:22.547Z,10.85
2022-12-12T19:48:49.305Z,13.23
2022-12-12T19:51:20.939Z,14.52
2022-12-12T19:53:50.061Z,13.02
2022-12-12T19:56:23.216Z,12.70
2022-12-12T19:58:50.432Z,12.65
2022-12-12T20:01:22.989Z,15.00
2022-12-12T20:03:51.557Z,15.85
2022-12-12T20:06:18.793Z,14.48
2022-12-12T20:08:45.961Z,13.02
2022-12-12T20:11:18.431Z,14.15
2022-12-12T20:13:52.990Z,16.15
2022-12-12T20:16:22.651Z,15.32
2022-12-12T20:18:50.278Z,14.43
2022-12-12T20:21:43.438Z,14.75
2022-12-12T20:24:07.643Z,13.40
2022-12-12T20:26:34.624Z,14.32
2022-12-12T20:29:01.828Z,14.48
2022-12-12T20:31:34.895Z,16.20
2022-12-12T20:34:02.277Z,17.00
2022-12-12T20:36:31.459Z,17.20
2022-12-12T20:38:59.568Z,17.25
2022-12-12T20:41:29.197Z,18.33
2022-12-12T20:43:57.110Z,17.27
2022-12-12T20:46:29.852Z,18.02
2022-12-12T20:48:58.524Z,19.25
2022-12-12T20:54:21.479Z,19.98
2022-12-12T20:56:49.449Z,20.38
2022-12-12T20:59:15.933Z,19.63
2022-12-12T21:01:42.447Z,20.27
2022-12-12T21:04:09.525Z,20.98
2022-12-12T21:06:44.234Z,22.15
2022-12-12T21:09:13.019Z,22.50
2022-12-12T21:11:41.512Z,21.08
2022-12-12T21:14:08.162Z,21.35
2022-12-12T21:16:37.940Z,21.48
2022-12-12T21:19:09.223Z,21.75
2022-12-12T21:21:36.633Z,22.02
2022-12-12T21:24:04.299Z,20.98
2022-12-12T21:26:31.826Z,20.88
2022-12-12T21:29:00.248Z,18.58
2022-12-12T21:31:29.883Z,18.27
2022-12-12T21:33:57.533Z,17.65
2022-12-12T21:36:24.607Z,19.10
2022-12-12T21:38:52.865Z,17.90
2022-12-12T21:41:21.309Z,18.17
2022-12-12T21:43:48.270Z,18.17
2022-12-12T21:46:17.751Z,16.90
2022-12-12T21:48:44.262Z,17.08
2022-12-12T21:51:15.878Z,16.75
2022-12-12T21:53:43.057Z,17.17
2022-12-12T21:56:15.053Z,16.27
2022-12-12T21:58:42.921Z,16.20
2022-12-12T22:01:12.556Z,15.30
2022-12-12T22:03:39.413Z,16.75
2022-12-12T22:06:20.670Z,16.17
2022-12-12T22:08:48.008Z,14.27
2022-12-12T22:11:23.830Z,14.40
2022-12-12T22:14:04.307Z,15.75
2022-12-12T22:16:33.558Z,16.05
2022-12-12T22:19:06.502Z,14.82
2022-12-12T22:21:33.715Z,15.40
2022-12-12T22:24:00.723Z,15.65
2022-12-12T22:26:33.388Z,13.98
2022-12-12T22:29:04.575Z,14.00
2022-12-12T22:31:34.400Z,14.38
2022-12-12T22:34:04.131Z,15.85
2022-12-12T22:36:32.705Z,15.50
2022-12-12T22:38:59.968Z,13.95
2022-12-12T22:41:28.770Z,12.68
2022-12-12T22:43:58.590Z,14.27
2022-12-12T22:46:26.471Z,14.40
2022-12-12T22:48:54.722Z,14.57
2022-12-12T22:51:27.145Z,13.13
2022-12-12T22:53:55.972Z,14.27
2022-12-12T22:56:22.970Z,14.15
2022-12-12T22:58:49.687Z,14.63
2022-12-12T23:01:18.447Z,13.85
2022-12-12T23:03:46.135Z,13.68
2022-12-12T23:06:16.981Z,14.63
2022-12-12T23:08:48.456Z,13.10
2022-12-12T23:13:44.286Z,12.18
2022-12-12T23:16:19.658Z,12.48
2022-12-12T23:18:47.463Z,13.23
2022-12-12T23:21:17.323Z,13.63
2022-12-12T23:23:44.787Z,12.60
2022-12-12T23:26:13.930Z,12.63
2022-12-12T23:28:40.781Z,17.20
2022-12-12T23:31:13.138Z,12.95
2022-12-12T23:33:40.005Z,11.32
2022-12-12T23:36:08.674Z,10.32
2022-12-12T23:38:35.248Z,9.95
2022-12-12T23:41:06.688Z,11.35
2022-12-12T23:46:05.092Z,11.80
2022-12-12T23:48:32.229Z,10.43
2022-12-12T23:50:59.453Z,12.65
2022-12-12T23:53:27.111Z,12.40
2022-12-12T23:55:53.865Z,11.88
2022-12-12T23:58:20.373Z,12.00
